Time;durP1;ratioP1;P1;durP2;ratioP2;P2;SDS_P1;SDS_P2;PMS_P1;PMS_P2;Temp;Humidity;BMP_temperature;BMP_pressure;BME280_temperature;BME280_humidity;BME280_pressure;Samples;Min_cycle;Max_cycle;Signal;HPM_P1;HPM_P2
2022/08/06 00:01:20;;;;;;;2.47;1.25;;;;;;;23.07;44.38;99648.38;5185823;28;20100;-72
2022/08/06 00:04:11;;;;;;;2.05;1.35;;;;;;;23.15;44.50;99646.28;5185030;28;20080;-71
2022/08/06 00:07:02;;;;;;;3.67;1.08;;;;;;;23.05;44.93;99650.47;5185520;28;20104;-71
2022/08/06 00:09:56;;;;;;;2.25;1.27;;;;;;;22.85;44.93;99645.88;5185738;28;20566;-71
2022/08/06 00:12:52;;;;;;;2.20;1.25;;;;;;;23.01;44.74;99658.16;5178253;28;20234;-71
2022/08/06 00:15:42;;;;;;;4.43;1.30;;;;;;;22.75;45.90;99658.97;5164999;28;20054;-72
2022/08/06 00:18:52;;;;;;;1.92;1.73;;;;;;;23.01;44.73;99665.44;5165157;28;20562;-72
2022/08/06 00:21:43;;;;;;;3.85;0.90;;;;;;;23.12;44.45;99662.13;5163141;28;20116;-71
2022/08/06 00:24:34;;;;;;;2.65;1.20;;;;;;;22.94;44.77;99665.44;5164477;28;20557;-71
2022/08/06 00:27:24;;;;;;;1.38;1.08;;;;;;;22.92;44.38;99668.31;5169631;28;20049;-72
2022/08/06 00:30:27;;;;;;;2.10;1.25;;;;;;;22.92;44.28;99652.09;5185032;28;20049;-71
2022/08/06 00:33:18;;;;;;;1.90;1.10;;;;;;;22.26;44.59;99658.22;5185073;28;20065;-72
2022/08/06 00:36:09;;;;;;;2.20;1.00;;;;;;;22.59;44.29;99656.66;5184832;28;20065;-71
2022/08/06 00:39:05;;;;;;;3.05;0.95;;;;;;;22.71;43.82;99661.25;5184922;28;20085;-72
2022/08/06 00:41:58;;;;;;;1.30;1.13;;;;;;;22.68;43.46;99652.69;5180637;28;20082;-71
2022/08/06 00:44:48;;;;;;;2.55;0.90;;;;;;;22.57;43.41;99651.44;5164543;28;20124;-71
2022/08/06 00:47:38;;;;;;;1.10;1.00;;;;;;;22.76;43.01;99663.31;5164442;28;20061;-71
2022/08/06 00:50:48;;;;;;;1.23;0.90;;;;;;;22.77;43.09;99664.97;5164808;28;20456;-71
2022/08/06 00:53:39;;;;;;;1.67;0.98;;;;;;;22.75;43.15;99664.38;5166164;28;20421;-71
2022/08/06 00:56:32;;;;;;;3.50;1.25;;;;;;;22.68;43.98;99664.38;5184444;28;20056;-72
2022/08/06 00:59:26;;;;;;;5.85;2.17;;;;;;;22.64;43.26;99649.56;5183873;28;20053;-72
2022/08/06 01:02:24;;;;;;;2.90;1.00;;;;;;;22.83;43.09;99672.25;5183643;28;20065;-72
2022/08/06 01:05:15;;;;;;;3.67;1.20;;;;;;;22.82;42.79;99673.31;5184501;28;20060;-72
2022/08/06 01:08:25;;;;;;;7.63;1.40;;;;;;;22.56;43.31;99674.09;5181449;28;20064;-72
2022/08/06 01:11:15;;;;;;;2.55;1.08;;;;;;;22.62;43.04;99672.47;5163966;28;20058;-71
2022/08/06 01:14:07;;;;;;;3.15;1.00;;;;;;;22.54;42.83;99675.34;5164362;28;20050;-71
2022/08/06 01:17:03;;;;;;;0.95;0.77;;;;;;;22.51;43.77;99677.41;5163795;28;20128;-71
2022/08/06 01:20:20;;;;;;;1.38;0.95;;;;;;;22.52;42.96;99675.56;5163886;28;20042;-71
2022/08/06 01:24:02;;;;;;;4.65;1.00;;;;;;;21.93;44.25;99670.75;5168236;28;20188;-71
2022/08/06 01:27:14;;;;;;;;;;;;;;;22.17;44.06;99675.66;5184291;28;20520;-71
2022/08/06 01:30:12;;;;;;;2.88;1.08;;;;;;;22.00;44.10;99674.31;5184346;28;20308;-71
2022/08/06 01:33:07;;;;;;;4.13;2.17;;;;;;;21.84;44.39;99691.69;5183446;28;20127;-72
2022/08/06 01:36:11;;;;;;;2.17;1.00;;;;;;;22.07;43.96;99679.75;5174378;28;20054;-72
2022/08/06 01:39:01;;;;;;;3.40;1.15;;;;;;;22.07;44.18;99687.84;5163845;28;20105;-72
2022/08/06 01:41:54;;;;;;;1.95;1.30;;;;;;;22.19;44.21;99694.38;5163122;28;20057;-72
2022/08/06 01:44:50;;;;;;;1.75;0.70;;;;;;;21.72;45.25;99686.03;5163478;28;20159;-72
2022/08/06 01:47:44;;;;;;;3.37;1.00;;;;;;;21.61;44.76;99685.75;5163452;28;20061;-71
2022/08/06 01:50:47;;;;;;;2.60;1.23;;;;;;;21.76;45.08;99690.00;5171310;28;20404;-72
2022/08/06 01:53:40;;;;;;;5.13;1.08;;;;;;;21.92;44.64;99690.66;5183233;28;20528;-72
2022/08/06 01:56:53;;;;;;;5.63;1.20;;;;;;;22.08;44.71;99697.59;5183548;28;20417;-72
2022/08/06 01:59:51;;;;;;;2.08;1.10;;;;;;;21.74;45.37;99707.41;5182862;28;20316;-72
2022/08/06 02:02:47;;;;;;;2.53;1.13;;;;;;;21.91;45.00;99692.53;5182890;28;20172;-72
2022/08/06 02:05:42;;;;;;;2.22;1.38;;;;;;;21.68;45.11;99700.94;5173991;28;20058;-72
2022/08/06 02:08:45;;;;;;;1.17;1.00;;;;;;;21.77;45.46;99698.91;5162810;28;20050;-71
2022/08/06 02:11:39;;;;;;;2.38;1.13;;;;;;;21.13;46.57;99697.22;5162278;28;20062;-72
2022/08/06 02:14:59;;;;;;;4.43;1.13;;;;;;;21.18;46.41;99705.53;5162631;28;20054;-71
2022/08/06 02:17:52;;;;;;;2.15;1.30;;;;;;;20.72;47.36;99703.25;5162767;28;20471;-72
2022/08/06 02:21:00;;;;;;;3.08;1.50;;;;;;;20.86;47.38;99699.69;5175674;28;20050;-72
2022/08/06 02:24:11;;;;;;;4.68;1.50;;;;;;;21.32;46.53;99692.97;5183281;28;20069;-72
2022/08/06 02:27:03;;;;;;;2.38;1.67;;;;;;;20.67;48.17;99694.09;5182835;28;20053;-72
2022/08/06 02:29:56;;;;;;;5.03;1.50;;;;;;;20.56;47.99;99688.19;5183227;28;20052;-71
2022/08/06 02:32:56;;;;;;;2.00;1.50;;;;;;;20.73;47.81;99693.28;5182643;28;20057;-72
2022/08/06 02:35:54;;;;;;;4.05;1.30;;;;;;;20.81;47.50;99683.22;5167790;28;20133;-72
2022/08/06 02:39:01;;;;;;;4.15;1.60;;;;;;;21.24;46.60;99683.19;5162554;28;20440;-72
2022/08/06 02:41:59;;;;;;;4.20;1.40;;;;;;;21.07;47.16;99690.72;5161563;28;20136;-72
2022/08/06 02:45:05;;;;;;;3.95;1.40;;;;;;;21.27;46.68;99687.34;5162433;28;20057;-72
2022/08/06 02:48:05;;;;;;;2.30;1.38;;;;;;;20.69;47.99;99675.84;5161739;28;20092;-72
2022/08/06 02:51:04;;;;;;;2.67;1.40;;;;;;;21.00;47.44;99689.84;5179224;28;20057;-72
2022/08/06 02:54:21;;;;;;;1.88;1.13;;;;;;;21.30;46.66;99690.50;5182641;28;20060;-72
2022/08/06 02:57:20;;;;;;;5.25;1.33;;;;;;;21.20;47.27;99694.56;5163456;28;20428;-72
2022/08/06 03:00:12;;;;;;;4.00;1.17;;;;;;;21.35;46.63;99695.31;5174381;28;20061;-72
2022/08/06 03:03:07;;;;;;;2.95;1.40;;;;;;;21.35;46.81;99692.63;5161940;28;20451;-72
2022/08/06 03:06:15;;;;;;;3.40;1.27;;;;;;;21.09;47.46;99696.78;5162064;28;20077;-72
2022/08/06 03:09:07;;;;;;;3.50;1.52;;;;;;;21.12;47.35;99687.44;5162499;28;20422;-72
2022/08/06 03:11:59;;;;;;;3.10;1.13;;;;;;;21.01;47.74;99704.97;5180240;28;20132;-72
2022/08/06 03:14:53;;;;;;;2.17;1.50;;;;;;;21.11;47.30;99700.09;5182623;28;20273;-72
2022/08/06 03:17:58;;;;;;;3.53;1.30;;;;;;;21.12;47.96;99711.69;5182590;28;20064;-72
2022/08/06 03:20:50;;;;;;;2.25;1.23;;;;;;;21.01;48.54;99707.69;5182255;28;20116;-72
2022/08/06 03:23:41;;;;;;;2.60;1.40;;;;;;;21.18;47.40;99713.63;5182437;28;20057;-72
2022/08/06 03:26:32;;;;;;;5.43;1.50;;;;;;;21.07;47.85;99719.56;5165341;28;20057;-72
2022/08/06 03:29:25;;;;;;;4.00;1.30;;;;;;;20.96;47.90;99720.06;5162322;28;20053;-72
2022/08/06 03:32:16;;;;;;;3.55;1.15;;;;;;;20.87;48.08;99725.59;5161817;28;20422;-72
2022/08/06 03:35:27;;;;;;;3.20;1.25;;;;;;;20.93;48.39;99726.69;5162048;28;20156;-72
2022/08/06 03:38:39;;;;;;;3.20;1.27;;;;;;;20.89;48.26;99725.38;5161850;28;20452;-72
2022/08/06 03:41:34;;;;;;;4.53;1.50;;;;;;;20.89;48.27;99730.78;5179528;28;20049;-71
2022/08/06 03:44:29;;;;;;;1.52;1.20;;;;;;;20.86;48.49;99728.47;5182255;28;20199;-72
2022/08/06 03:47:24;;;;;;;2.22;1.25;;;;;;;20.91;48.34;99728.72;5181996;28;20077;-72
2022/08/06 03:50:40;;;;;;;1.83;1.27;;;;;;;20.84;48.63;99735.94;5181845;28;20050;-72
2022/08/06 03:53:37;;;;;;;3.05;1.30;;;;;;;20.80;48.41;99731.94;5181722;28;20068;-72
2022/08/06 03:56:34;;;;;;;3.10;1.20;;;;;;;20.77;48.70;99743.13;5161156;28;20063;-72
2022/08/06 03:59:27;;;;;;;3.42;1.27;;;;;;;20.80;48.67;99746.25;5162137;28;20058;-72
2022/08/06 04:02:29;;;;;;;1.80;1.30;;;;;;;20.77;48.77;99748.50;5164954;28;20073;-72
2022/08/06 04:05:37;;;;;;;6.85;1.75;;;;;;;20.91;48.76;99750.31;5165432;28;20057;-72
2022/08/06 04:08:38;;;;;;;2.17;1.23;;;;;;;20.83;49.02;99753.97;5165255;28;20062;-72
2022/08/06 04:11:29;;;;;;;2.10;1.33;;;;;;;20.64;49.19;99758.09;5165081;28;20050;-72
2022/08/06 04:14:40;;;;;;;6.90;2.20;;;;;;;20.69;49.25;99760.22;5165162;28;20173;-72
2022/08/06 04:17:38;;;;;;;3.10;1.35;;;;;;;20.50;49.63;99766.22;5165462;28;20251;-72
2022/08/06 04:20:34;;;;;;;1.23;1.10;;;;;;;20.42;50.25;99767.13;5164868;28;20100;-72
2022/08/06 04:23:33;;;;;;;3.85;1.48;;;;;;;20.53;50.02;99769.38;5165094;28;20519;-72
2022/08/06 04:26:28;;;;;;;1.55;1.45;;;;;;;20.56;49.78;99778.94;5164813;28;20058;-71
2022/08/06 04:29:21;;;;;;;3.60;1.30;;;;;;;20.56;50.01;99774.41;5164764;28;20516;-72
2022/08/06 04:32:14;;;;;;;4.25;1.20;;;;;;;20.57;49.85;99769.84;5164417;28;20136;-72
2022/08/06 04:35:22;;;;;;;5.38;1.58;;;;;;;20.52;50.36;99761.47;5164746;28;20125;-72
2022/08/06 04:38:33;;;;;;;6.00;1.67;;;;;;;20.47;49.88;99775.50;5166372;28;20053;-72
2022/08/06 04:41:24;;;;;;;2.45;1.60;;;;;;;20.60;49.84;99766.78;5184422;28;20050;-72
2022/08/06 04:44:15;;;;;;;3.63;1.20;;;;;;;20.30;51.06;99782.13;5184047;28;20108;-72
2022/08/06 04:47:06;;;;;;;3.60;1.38;;;;;;;20.40;50.53;99786.19;5184777;28;20046;-72
2022/08/06 04:49:56;;;;;;;2.78;1.23;;;;;;;19.85;52.00;99789.38;5184755;28;20049;-71
2022/08/06 04:53:10;;;;;;;2.50;1.50;;;;;;;19.66;52.38;99771.88;5184601;28;20358;-71
2022/08/06 04:56:19;;;;;;;4.63;1.60;;;;;;;20.03;52.02;99797.91;5163869;28;20097;-72
2022/08/06 04:59:10;;;;;;;2.60;1.35;;;;;;;20.28;51.03;99784.16;5164407;28;20073;-71
2022/08/06 05:02:03;;;;;;;3.97;1.53;;;;;;;20.12;51.51;99794.09;5163524;28;20421;-71
2022/08/06 05:04:57;;;;;;;4.87;1.60;;;;;;;20.46;50.98;99806.13;5164494;28;20160;-72
2022/08/06 05:07:48;;;;;;;2.22;1.48;;;;;;;20.37;51.05;99801.91;5164651;28;20061;-72
2022/08/06 05:10:53;;;;;;;3.72;1.40;;;;;;;20.52;50.83;99808.09;5163715;28;20054;-72
2022/08/06 05:13:47;;;;;;;2.95;1.42;;;;;;;20.43;50.63;99811.94;5176093;28;20109;-72
2022/08/06 05:16:44;;;;;;;4.05;1.90;;;;;;;19.94;51.88;99810.63;5163776;28;20076;-71
2022/08/06 05:19:50;;;;;;;3.08;1.50;;;;;;;20.20;51.52;99809.34;5162890;28;20053;-72
2022/08/06 05:22:43;;;;;;;2.72;1.60;;;;;;;20.14;51.36;99819.00;5163673;28;20065;-71
2022/08/06 05:25:44;;;;;;;6.32;1.77;;;;;;;20.30;51.42;99827.91;5164042;28;20188;-71
2022/08/06 05:28:43;;;;;;;6.72;1.70;;;;;;;20.41;50.94;99819.34;5164001;28;20136;-71
2022/08/06 05:31:39;;;;;;;3.10;1.50;;;;;;;20.34;51.22;99829.19;5163129;28;20051;-71
2022/08/06 05:34:35;;;;;;;2.58;1.55;;;;;;;20.43;51.53;99838.88;5163722;28;20136;-71
2022/08/06 05:37:27;;;;;;;5.47;1.67;;;;;;;20.36;50.94;99837.91;5165013;28;20553;-71
2022/08/06 05:40:38;;;;;;;5.57;1.70;;;;;;;20.41;51.09;99844.41;5183611;28;20064;-71
2022/08/06 05:43:47;;;;;;;2.38;1.40;;;;;;;20.33;51.23;99838.28;5183820;28;20058;-71
2022/08/06 05:46:55;;;;;;;2.63;1.60;;;;;;;20.53;51.97;99849.34;5184012;28;20073;-71
2022/08/06 05:49:52;;;;;;;3.22;1.52;;;;;;;20.93;50.42;99841.78;5184019;28;20097;-71
2022/08/06 05:53:04;;;;;;;5.65;2.00;;;;;;;20.67;50.55;99840.44;5177111;28;20057;-71
2022/08/06 05:55:59;;;;;;;3.22;1.90;;;;;;;20.74;51.25;99833.25;5162924;28;20057;-71
2022/08/06 05:58:58;;;;;;;5.72;1.73;;;;;;;20.86;50.67;99849.75;5162910;28;20452;-71
2022/08/06 06:01:49;;;;;;;5.15;1.67;;;;;;;21.09;49.45;99850.47;5162651;28;20077;-71
2022/08/06 06:04:41;;;;;;;5.05;1.80;;;;;;;21.01;50.07;99839.78;5163415;28;20525;-71
2022/08/06 06:07:36;;;;;;;2.22;1.63;;;;;;;21.12;50.45;99854.63;5168826;28;20056;-71
2022/08/06 06:10:47;;;;;;;3.38;1.73;;;;;;;21.08;50.01;99854.16;5183037;28;20065;-71
2022/08/06 06:13:43;;;;;;;5.00;1.60;;;;;;;21.15;50.41;99859.63;5183034;28;20523;-71
2022/08/06 06:17:06;;;;;;;1.80;1.58;;;;;;;21.14;50.23;99859.84;5183164;28;20212;-71
2022/08/06 06:20:40;;;;;;;2.60;1.60;;;;;;;21.41;48.40;99859.09;5183012;28;20045;-71
2022/08/06 06:23:53;;;;;;;3.58;1.52;;;;;;;20.71;49.95;99867.84;5141720;28;20073;-71
2022/08/06 06:26:55;;;;;;;;;;;;;;;21.35;49.31;99867.97;5163240;28;20073;-71
2022/08/06 06:30:06;;;;;;;6.93;1.60;;;;;;;21.33;48.82;99840.31;5162714;28;19928;-71
2022/08/06 06:33:28;;;;;;;1.45;1.30;;;;;;;21.56;49.38;99869.84;5162503;28;20054;-71
2022/08/06 06:37:00;;;;;;;3.50;1.73;;;;;;;20.95;49.37;99872.91;5163768;28;20054;-71
2022/08/06 06:40:05;;;;;;;2.08;1.52;;;;;;;21.01;49.50;99871.31;5182885;28;20052;-71
2022/08/06 06:43:11;;;;;;;4.38;1.70;;;;;;;21.59;47.92;99874.84;5182632;28;20591;-71
2022/08/06 06:46:15;;;;;;;2.08;1.50;;;;;;;21.58;47.67;99881.25;5183018;28;20053;-71
2022/08/06 06:49:34;;;;;;;6.25;1.65;;;;;;;21.50;48.69;99882.22;5182779;28;20089;-71
2022/08/06 06:52:48;;;;;;;8.13;1.63;;;;;;;22.02;47.34;99886.41;5169658;28;20065;-71
2022/08/06 06:55:44;;;;;;;5.38;1.52;;;;;;;21.76;47.75;99878.13;5162383;28;20105;-72
2022/08/06 06:58:55;;;;;;;3.60;1.48;;;;;;;21.22;48.24;99887.50;5179049;28;20054;-71
2022/08/06 07:01:48;;;;;;;2.65;1.30;;;;;;;21.18;48.65;99898.88;5181554;28;20050;-71
2022/08/06 07:04:45;;;;;;;7.07;1.80;;;;;;;20.73;49.54;99885.50;5182699;28;20061;-71
2022/08/06 07:07:40;;;;;;;3.72;2.00;;;;;;;20.83;48.76;99877.13;5182232;28;20460;-71
2022/08/06 07:10:42;;;;;;;5.47;1.67;;;;;;;21.60;47.77;99884.59;5182085;28;20076;-71
2022/08/06 07:13:36;;;;;;;7.80;1.50;;;;;;;21.78;47.40;99892.22;5170556;28;20058;-71
2022/08/06 07:16:37;;;;;;;6.88;1.38;;;;;;;22.27;46.22;99894.09;5161019;28;20577;-71
2022/08/06 07:19:31;;;;;;;6.40;1.48;;;;;;;22.38;45.76;99890.00;5162047;28;20505;-71
2022/08/06 07:22:24;;;;;;;1.65;1.20;;;;;;;21.30;47.92;99889.25;5161496;28;20517;-71
2022/08/06 07:25:15;;;;;;;6.38;1.45;;;;;;;21.97;47.60;99893.44;5161847;28;20056;-71
2022/08/06 07:28:13;;;;;;;2.95;1.40;;;;;;;22.63;46.04;99893.88;5169800;28;20069;-71
2022/08/06 07:31:11;;;;;;;2.25;1.50;;;;;;;23.47;43.84;99900.84;5161546;28;20109;-71
2022/08/06 07:34:01;;;;;;;3.50;1.30;;;;;;;24.38;43.06;99900.25;5162048;28;20061;-71
2022/08/06 07:36:59;;;;;;;2.10;1.55;;;;;;;24.75;40.86;99895.19;5165837;28;20532;-71
2022/08/06 07:39:52;;;;;;;3.47;1.50;;;;;;;25.24;40.26;99905.44;5165862;28;20444;-71
2022/08/06 07:42:45;;;;;;;2.80;1.40;;;;;;;25.51;39.10;99905.25;5168100;28;20128;-71
2022/08/06 07:45:37;;;;;;;2.58;1.40;;;;;;;25.37;38.80;99893.66;5186204;28;20107;-71
2022/08/06 07:48:49;;;;;;;5.43;1.60;;;;;;;26.37;38.03;99893.69;5186218;28;20064;-71
2022/08/06 07:51:44;;;;;;;4.15;1.63;;;;;;;27.19;35.77;99895.31;5185588;28;20046;-71
2022/08/06 07:54:37;;;;;;;3.25;1.20;;;;;;;27.18;36.26;99905.34;5185205;28;20525;-71
2022/08/06 07:57:30;;;;;;;1.70;1.45;;;;;;;26.70;36.75;99906.97;5185884;28;20060;-71
2022/08/06 08:00:41;;;;;;;3.17;1.30;;;;;;;27.81;33.81;99901.28;5172268;28;20077;-71
2022/08/06 08:06:51;;;;;;;3.10;1.08;;;;;;;27.81;34.59;99893.94;5185577;28;20091;-72
2022/08/06 08:09:43;;;;;;;2.63;1.55;;;;;;;27.86;34.51;99891.34;5186134;28;20241;-71
2022/08/06 08:12:52;;;;;;;2.42;1.20;;;;;;;27.35;34.89;99891.91;5185198;28;20606;-72
2022/08/06 08:15:46;;;;;;;1.73;1.00;;;;;;;26.63;35.95;99889.88;5185828;28;20237;-71
2022/08/06 08:18:40;;;;;;;5.32;1.20;;;;;;;27.25;35.14;99897.06;5182738;28;20180;-71
2022/08/06 08:21:34;;;;;;;3.28;1.20;;;;;;;26.47;35.04;99887.75;5184928;28;20114;-71
2022/08/06 08:24:25;;;;;;;5.05;1.50;;;;;;;27.28;33.65;99889.28;5184372;28;20527;-71
2022/08/06 08:27:16;;;;;;;1.45;0.90;;;;;;;28.22;32.62;99878.56;5185239;28;20474;-71
2022/08/06 08:30:12;;;;;;;2.75;1.15;;;;;;;27.82;33.27;99875.72;5185521;28;20061;-71
2022/08/06 08:33:04;;;;;;;3.55;0.98;;;;;;;29.08;31.05;99872.50;5171607;28;20058;-71
2022/08/06 08:36:07;;;;;;;2.28;0.90;;;;;;;29.69;30.87;99876.34;5165044;28;20077;-72
2022/08/06 08:39:01;;;;;;;3.63;1.20;;;;;;;27.85;31.54;99881.53;5165022;28;20076;-71
2022/08/06 08:42:01;;;;;;;3.13;0.90;;;;;;;27.93;32.71;99877.63;5163911;28;20125;-71
2022/08/06 08:44:54;;;;;;;3.30;1.13;;;;;;;28.52;31.02;99883.09;5164764;28;20079;-71
2022/08/06 08:47:49;;;;;;;3.05;1.00;;;;;;;27.45;32.03;99862.25;5175039;28;20054;-71
2022/08/06 08:50:47;;;;;;;1.85;0.80;;;;;;;27.84;31.77;99870.84;5184471;28;20046;-71
2022/08/06 08:53:52;;;;;;;5.70;0.90;;;;;;;29.27;31.01;99876.69;5184624;28;20527;-71
2022/08/06 08:56:48;;;;;;;2.95;1.05;;;;;;;28.56;31.30;99868.69;5184162;28;20065;-71
2022/08/06 09:00:00;;;;;;;5.25;0.80;;;;;;;29.11;31.16;99856.47;5184289;28;20142;-71
2022/08/06 09:02:55;;;;;;;2.58;0.75;;;;;;;30.32;28.43;99853.28;5169423;28;20117;-71
2022/08/06 09:05:46;;;;;;;2.47;0.93;;;;;;;30.39;27.60;99848.44;5164202;28;20062;-72
2022/08/06 09:08:37;;;;;;;1.08;0.70;;;;;;;30.63;27.72;99870.13;5164383;28;20555;-72
2022/08/06 09:11:48;;;;;;;1.42;0.80;;;;;;;29.89;27.82;99870.38;5163709;28;20158;-71
2022/08/06 09:14:58;;;;;;;1.27;0.73;;;;;;;29.19;29.57;99882.53;5164270;28;20050;-71
2022/08/06 09:17:49;;;;;;;1.50;0.70;;;;;;;30.40;27.81;99884.88;5179645;28;20064;-72
2022/08/06 09:21:01;;;;;;;12.25;1.67;;;;;;;30.78;27.69;99886.75;5184091;28;20470;-72
2022/08/06 09:23:56;;;;;;;8.52;1.60;;;;;;;31.40;26.87;99873.78;5184266;28;20057;-72
2022/08/06 09:27:09;;;;;;;4.30;1.00;;;;;;;30.80;26.61;99879.13;5183105;28;20116;-72
2022/08/06 09:30:19;;;;;;;1.42;0.80;;;;;;;30.05;26.30;99882.41;5184373;28;20057;-71
2022/08/06 09:33:19;;;;;;;2.05;0.75;;;;;;;30.07;27.55;99878.34;5162505;28;20073;-71
2022/08/06 09:36:44;;;;;;;2.13;0.80;;;;;;;29.91;27.38;99882.75;5164257;28;20202;-71
2022/08/06 09:39:44;;;;;;;1.15;0.80;;;;;;;29.06;28.35;99891.03;5163932;28;20085;-71
2022/08/06 09:42:50;;;;;;;3.50;1.00;;;;;;;30.15;27.36;99879.81;5163438;28;20050;-71
2022/08/06 09:45:44;;;;;;;1.70;0.70;;;;;;;30.33;28.55;99874.09;5163886;28;20081;-71
2022/08/06 09:48:36;;;;;;;1.75;0.80;;;;;;;31.24;25.62;99870.00;5163355;28;20069;-71
2022/08/06 09:51:27;;;;;;;0.88;0.80;;;;;;;30.54;25.83;99877.13;5163612;28;20058;-71
2022/08/06 09:54:38;;;;;;;2.33;0.90;;;;;;;31.20;25.58;99885.31;5162998;28;20148;-71
2022/08/06 09:57:43;;;;;;;0.57;0.52;;;;;;;30.83;26.56;99870.41;5162612;28;20456;-71
2022/08/06 10:00:36;;;;;;;4.57;1.10;;;;;;;28.98;28.25;99870.38;5162019;28;20158;-71
2022/08/06 10:03:38;;;;;;;1.40;0.77;;;;;;;30.26;29.26;99881.63;5162981;28;20330;-71
2022/08/06 10:06:54;;;;;;;2.00;0.80;;;;;;;31.20;26.04;99871.63;5172368;28;20054;-71
2022/08/06 10:09:53;;;;;;;1.95;0.88;;;;;;;31.17;27.30;99888.56;5183441;28;20188;-71
2022/08/06 10:12:45;;;;;;;1.85;1.00;;;;;;;30.71;26.26;99875.13;5182668;28;20068;-71
2022/08/06 10:15:36;;;;;;;4.32;1.10;;;;;;;28.90;29.24;99879.75;5183255;28;20064;-71
2022/08/06 10:18:48;;;;;;;1.35;0.63;;;;;;;28.75;28.61;99876.75;5183246;28;20069;-71
2022/08/06 10:21:47;;;;;;;2.45;0.80;;;;;;;28.59;30.86;99886.50;5172174;28;20076;-71
2022/08/06 10:24:43;;;;;;;2.25;0.82;;;;;;;28.67;28.77;99885.28;5162843;28;20068;-71
2022/08/06 10:27:39;;;;;;;3.17;0.85;;;;;;;29.63;27.55;99878.16;5162066;28;20054;-71
2022/08/06 10:30:30;;;;;;;1.33;0.73;;;;;;;29.89;27.48;99884.88;5162998;28;20054;-71
2022/08/06 10:33:30;;;;;;;3.95;0.90;;;;;;;30.11;27.58;99874.03;5168324;28;20046;-71
2022/08/06 10:36:34;;;;;;;2.88;0.90;;;;;;;30.52;26.62;99868.31;5182511;28;20176;-71
2022/08/06 10:39:33;;;;;;;3.90;0.90;;;;;;;29.08;27.88;99870.59;5183112;28;20563;-71
2022/08/06 10:42:43;;;;;;;2.33;1.00;;;;;;;28.78;28.70;99876.25;5183050;28;20046;-71
2022/08/06 10:45:34;;;;;;;2.53;0.80;;;;;;;28.93;28.86;99870.28;5182746;28;20431;-71
2022/08/06 10:48:39;;;;;;;1.23;1.00;;;;;;;28.82;28.52;99876.59;5177109;28;20132;-71
2022/08/06 10:51:51;;;;;;;3.85;1.10;;;;;;;28.16;28.74;99868.59;5161771;28;20441;-71
2022/08/06 10:54:48;;;;;;;1.10;1.00;;;;;;;26.85;31.71;99865.75;5161456;28;20085;-71
2022/08/06 10:57:41;;;;;;;3.60;1.05;;;;;;;27.24;30.93;99884.53;5162422;28;20488;-71
2022/08/06 11:00:33;;;;;;;4.68;2.00;;;;;;;27.27;31.95;99874.00;5162189;28;20559;-71
2022/08/06 11:03:35;;;;;;;1.40;1.05;;;;;;;26.46;32.29;99873.31;5165966;28;20045;-71
2022/08/06 11:07:05;;;;;;;4.35;1.40;;;;;;;27.25;31.30;99881.59;5181953;28;20046;-71
2022/08/06 11:10:22;;;;;;;1.20;0.80;;;;;;;27.36;31.86;99869.06;5182211;28;20547;-71
2022/08/06 11:13:23;;;;;;;1.20;0.93;;;;;;;27.62;32.09;99863.22;5182279;28;20052;-71
2022/08/06 11:16:29;;;;;;;5.28;1.00;;;;;;;28.71;30.16;99849.09;5182217;28;20057;-71
2022/08/06 11:19:44;;;;;;;1.52;1.15;;;;;;;28.69;29.32;99836.78;5172595;28;20423;-71
2022/08/06 11:22:45;;;;;;;4.20;1.08;;;;;;;28.51;29.59;99857.69;5161434;28;20057;-71
2022/08/06 11:25:45;;;;;;;3.35;1.10;;;;;;;29.11;27.90;99852.91;5161776;28;20053;-71
2022/08/06 11:28:36;;;;;;;3.55;1.00;;;;;;;29.16;28.97;99847.53;5161022;28;20129;-71
2022/08/06 11:31:36;;;;;;;3.40;0.80;;;;;;;27.16;29.66;99848.41;5161519;28;20549;-71
2022/08/06 11:34:42;;;;;;;1.30;0.98;;;;;;;27.44;29.54;99844.22;5174179;28;20054;-71
2022/08/06 11:37:44;;;;;;;3.05;1.05;;;;;;;27.43;29.56;99833.56;5182138;28;20046;-71
2022/08/06 11:41:00;;;;;;;2.40;1.00;;;;;;;26.41;30.44;99836.97;5182066;28;20105;-71
2022/08/06 11:43:58;;;;;;;2.30;0.80;;;;;;;27.52;30.32;99834.91;5181809;28;20050;-70
2022/08/06 11:47:06;;;;;;;1.90;1.00;;;;;;;28.45;30.21;99836.00;5181883;28;20100;-70
2022/08/06 11:49:56;;;;;;;3.35;1.02;;;;;;;28.74;28.32;99824.06;5164418;28;20416;-71
2022/08/06 11:52:47;;;;;;;3.42;0.90;;;;;;;28.66;28.33;99829.06;5173759;28;20055;-71
2022/08/06 11:56:03;;;;;;;0.95;0.73;;;;;;;28.67;29.56;99820.63;5161604;28;20069;-71
2022/08/06 11:59:14;;;;;;;6.13;1.10;;;;;;;28.10;28.63;99821.31;5161474;28;20065;-71
2022/08/06 12:02:05;;;;;;;2.65;0.82;;;;;;;27.93;29.59;99817.66;5160888;28;20104;-70
2022/08/06 12:04:56;;;;;;;6.03;1.02;;;;;;;27.83;28.98;99820.13;5181330;28;20072;-70
2022/08/06 12:08:18;;;;;;;2.20;0.95;;;;;;;27.64;29.05;99809.31;5181991;28;20559;-71
2022/08/06 12:11:33;;;;;;;3.22;0.75;;;;;;;27.81;28.42;99814.91;5181298;28;20660;-71
2022/08/06 12:14:40;;;;;;;2.17;1.15;;;;;;;28.20;29.02;99814.44;5181704;28;20056;-71
2022/08/06 12:17:57;;;;;;;2.20;1.00;;;;;;;28.53;28.28;99808.34;5178200;28;20177;-71
2022/08/06 12:21:11;;;;;;;2.15;0.93;;;;;;;28.80;27.81;99784.84;5187978;28;20441;-71
2022/08/06 12:24:03;;;;;;;2.53;1.10;;;;;;;28.79;28.87;99790.56;5164924;28;20156;-71
2022/08/06 12:26:53;;;;;;;3.08;1.00;;;;;;;28.72;28.59;99784.44;5165159;28;20054;-71
2022/08/06 12:29:44;;;;;;;4.82;0.80;;;;;;;28.93;28.45;99780.19;5165042;28;20169;-71
2022/08/06 12:32:36;;;;;;;1.40;0.90;;;;;;;27.76;29.07;99783.97;5164614;28;20104;-71
2022/08/06 12:35:57;;;;;;;2.90;0.90;;;;;;;27.01;28.60;99785.34;5164805;28;20125;-71
2022/08/06 12:38:54;;;;;;;1.55;0.88;;;;;;;26.92;29.87;99784.00;5164826;28;20061;-71
2022/08/06 12:41:47;;;;;;;4.65;1.00;;;;;;;26.80;29.13;99777.72;5164161;28;20053;-71
2022/08/06 12:44:43;;;;;;;1.23;0.73;;;;;;;27.49;28.37;99765.38;5164921;28;20090;-71
2022/08/06 12:48:05;;;;;;;3.13;0.77;;;;;;;27.57;28.85;99767.72;5164944;28;20081;-71
2022/08/06 12:51:08;;;;;;;0.95;0.80;;;;;;;27.31;28.24;99768.19;5177866;28;20061;-71
2022/08/06 12:54:06;;;;;;;2.58;0.70;;;;;;;27.35;28.30;99759.31;5185415;28;20152;-71
2022/08/06 12:56:56;;;;;;;2.72;0.85;;;;;;;27.56;29.15;99749.75;5184609;28;20676;-71
2022/08/06 12:59:48;;;;;;;2.88;0.90;;;;;;;27.92;27.77;99753.31;5184618;28;20570;-71
2022/08/06 13:02:40;;;;;;;2.10;1.02;;;;;;;27.61;27.52;99749.00;5173651;28;20062;-71
2022/08/06 13:05:33;;;;;;;2.70;1.05;;;;;;;27.71;28.80;99756.59;5164283;28;20124;-71
2022/08/06 13:08:26;;;;;;;2.08;0.70;;;;;;;27.59;27.79;99753.88;5164396;28;20421;-71
2022/08/06 13:11:16;;;;;;;3.80;1.00;;;;;;;27.46;28.91;99749.50;5163989;28;20109;-71
2022/08/06 13:14:13;;;;;;;3.55;1.00;;;;;;;27.27;28.66;99746.03;5164493;28;20200;-71
2022/08/06 13:17:13;;;;;;;4.40;1.02;;;;;;;27.12;28.51;99734.75;5166675;28;20394;-71
2022/08/06 13:20:23;;;;;;;2.90;0.80;;;;;;;27.45;27.66;99753.28;5184646;28;20080;-71
2022/08/06 13:23:36;;;;;;;1.13;0.70;;;;;;;27.40;28.42;99734.91;5182873;28;20061;-71
2022/08/06 13:26:29;;;;;;;1.20;0.77;;;;;;;27.37;28.59;99729.94;5170096;28;20065;-71
2022/08/06 13:29:26;;;;;;;4.05;0.88;;;;;;;27.49;28.26;99727.25;5164081;28;20053;-73
2022/08/06 13:32:37;;;;;;;4.20;0.93;;;;;;;27.17;28.99;99719.38;5162823;28;20065;-70
2022/08/06 13:35:31;;;;;;;5.75;0.88;;;;;;;26.31;29.80;99719.75;5163895;28;20089;-70
2022/08/06 13:38:31;;;;;;;2.42;0.60;;;;;;;26.96;29.16;99730.81;5164059;28;20444;-71
2022/08/06 13:41:27;;;;;;;2.83;1.20;;;;;;;26.94;28.65;99711.16;5177467;28;20065;-71
2022/08/06 13:44:38;;;;;;;2.15;0.88;;;;;;;27.00;28.96;99714.84;5183852;28;20046;-71
2022/08/06 13:47:29;;;;;;;2.35;0.70;;;;;;;26.89;28.94;99700.16;5183847;28;20186;-71
2022/08/06 13:50:41;;;;;;;0.75;0.60;;;;;;;27.16;29.16;99712.28;5184009;28;20112;-71
2022/08/06 13:53:34;;;;;;;1.88;0.77;;;;;;;26.98;28.82;99715.06;5183004;28;20052;-70
2022/08/06 13:56:37;;;;;;;0.90;0.80;;;;;;;27.22;28.86;99715.97;5163376;28;20155;-71
2022/08/06 13:59:31;;;;;;;2.05;0.70;;;;;;;26.11;29.79;99715.41;5163862;28;20058;-71
2022/08/06 14:02:33;;;;;;;1.00;0.75;;;;;;;27.17;29.21;99702.22;5162500;28;20065;-71
2022/08/06 14:05:24;;;;;;;1.42;0.70;;;;;;;27.79;28.26;99710.78;5163177;28;20184;-70
2022/08/06 14:08:14;;;;;;;3.38;1.10;;;;;;;27.36;27.29;99716.56;5163073;28;20143;-70
2022/08/06 14:11:23;;;;;;;3.67;0.77;;;;;;;27.40;28.04;99706.88;5181733;28;20061;-71